Accueil
METAR-TAF:

METAR-TAF

Aéroports :

Aéroport international de Maroua Salak

Maroua, Cameroun

latitude: 10-27N, longitude: 014-15E, altitude: 423 m

Observation

Le bulletin a été fait il y a 9 heures et 12 minutes, à 16:00 UTC
Vent 8 kt de est/nord-est
Température 35°C
Humidité 27%
Pression 1009 hPa
Visibilité 10 km ou plus
Quelques nuages à une hauteur de 5000 ft, Cumulonimbus.

METAR: FKKL 201600Z 07008KT 9999 FEW050CB 35/13 Q1009

Heure: 02:12 (01:12 UTC)

Prévision

Le bulletin a été fait il y a 20 heures et 12 minutes, à 05:00 UTC
Prévision valable du 20 à 06 UTC au 20 à 18 UTC
Vent 4 kt de nord/nord-est
Visibilité 10 km ou plus
Temporairement
du 20 à 16 UTC au 20 à 18 UTC
Visibilité: 4000 m
brume sèche

TAF: FKKL 200500Z 2006/2018 03004KT 9999 NSC TEMPO 2016/2018 4000 HZ

Observations et prévisions météorologiques de plus de 4000 aéroports (messages METAR et TAF).

Les stations disponibles sont représentées par des disques jaunes et rouges sur la carte.

Passer la souris dessus pour voir le nom de la station.

Cliquer dessus pour voir les observations et prévisions météorologiques.

Pour changer de carte: cliquez sur les boutons verts avec une croix noire pour zoomer, sur le bouton vert avec un tiret pour effectuer un zoom arrière, ou sur les flèches vertes pour les cartes adjacentes.


METAR-TAF: